sensor_id;sensor_type;location;lat;lon;timestamp;temperature;humidity
8402;DHT22;4238;48.404;9.498;2022-08-18T00:02:02;17.50;99.90
8402;DHT22;4238;48.404;9.498;2022-08-18T00:04:30;17.50;99.90
8402;DHT22;4238;48.404;9.498;2022-08-18T00:06:58;17.60;99.90
8402;DHT22;4238;48.404;9.498;2022-08-18T00:09:25;17.70;99.90
8402;DHT22;4238;48.404;9.498;2022-08-18T00:11:52;17.70;99.90
8402;DHT22;4238;48.404;9.498;2022-08-18T00:14:20;17.80;99.90
8402;DHT22;4238;48.404;9.498;2022-08-18T00:16:48;17.70;99.90
8402;DHT22;4238;48.404;9.498;2022-08-18T00:19:15;17.80;99.90
8402;DHT22;4238;48.404;9.498;2022-08-18T00:21:42;17.70;99.90
8402;DHT22;4238;48.404;9.498;2022-08-18T00:24:10;17.70;99.90
8402;DHT22;4238;48.404;9.498;2022-08-18T00:26:37;17.60;99.90
8402;DHT22;4238;48.404;9.498;2022-08-18T00:29:04;17.50;99.90
8402;DHT22;4238;48.404;9.498;2022-08-18T00:31:31;17.60;99.90
8402;DHT22;4238;48.404;9.498;2022-08-18T00:33:58;17.70;99.90
8402;DHT22;4238;48.404;9.498;2022-08-18T00:36:26;17.60;99.90
8402;DHT22;4238;48.404;9.498;2022-08-18T00:38:53;17.50;99.90
8402;DHT22;4238;48.404;9.498;2022-08-18T00:41:21;17.40;99.90
8402;DHT22;4238;48.404;9.498;2022-08-18T00:43:51;17.40;99.90
8402;DHT22;4238;48.404;9.498;2022-08-18T00:46:21;17.40;99.90
8402;DHT22;4238;48.404;9.498;2022-08-18T00:48:48;17.40;99.90
8402;DHT22;4238;48.404;9.498;2022-08-18T00:51:22;17.40;99.90
8402;DHT22;4238;48.404;9.498;2022-08-18T00:53:52;17.50;99.90
8402;DHT22;4238;48.404;9.498;2022-08-18T00:56:26;17.40;99.90
8402;DHT22;4238;48.404;9.498;2022-08-18T00:59:00;17.40;99.90
8402;DHT22;4238;48.404;9.498;2022-08-18T01:01:30;17.40;99.90
8402;DHT22;4238;48.404;9.498;2022-08-18T01:04:02;17.40;99.90
8402;DHT22;4238;48.404;9.498;2022-08-18T01:06:36;17.30;99.90
8402;DHT22;4238;48.404;9.498;2022-08-18T01:09:04;17.40;99.90
8402;DHT22;4238;48.404;9.498;2022-08-18T01:11:33;17.30;99.90
8402;DHT22;4238;48.404;9.498;2022-08-18T01:14:01;17.40;99.90
8402;DHT22;4238;48.404;9.498;2022-08-18T01:16:28;17.40;99.90
8402;DHT22;4238;48.404;9.498;2022-08-18T01:19:13;17.40;99.90
8402;DHT22;4238;48.404;9.498;2022-08-18T01:22:03;17.40;99.90
8402;DHT22;4238;48.404;9.498;2022-08-18T01:24:34;17.30;99.90
8402;DHT22;4238;48.404;9.498;2022-08-18T01:27:20;17.30;99.90
8402;DHT22;4238;48.404;9.498;2022-08-18T01:29:49;17.20;99.90
8402;DHT22;4238;48.404;9.498;2022-08-18T01:32:18;17.20;99.90
8402;DHT22;4238;48.404;9.498;2022-08-18T01:34:46;17.20;99.90
8402;DHT22;4238;48.404;9.498;2022-08-18T01:37:15;17.30;99.90
8402;DHT22;4238;48.404;9.498;2022-08-18T01:39:45;17.30;99.90
8402;DHT22;4238;48.404;9.498;2022-08-18T01:42:14;17.20;99.90
8402;DHT22;4238;48.404;9.498;2022-08-18T01:44:41;17.20;99.90
8402;DHT22;4238;48.404;9.498;2022-08-18T01:47:08;17.00;99.90
8402;DHT22;4238;48.404;9.498;2022-08-18T01:49:38;16.90;99.90
8402;DHT22;4238;48.404;9.498;2022-08-18T01:52:08;16.90;99.90
8402;DHT22;4238;48.404;9.498;2022-08-18T01:54:35;16.80;99.90
8402;DHT22;4238;48.404;9.498;2022-08-18T01:57:04;16.80;99.90
8402;DHT22;4238;48.404;9.498;2022-08-18T01:59:31;16.70;99.90
8402;DHT22;4238;48.404;9.498;2022-08-18T02:02:00;16.70;99.90
8402;DHT22;4238;48.404;9.498;2022-08-18T02:04:30;16.60;99.90
8402;DHT22;4238;48.404;9.498;2022-08-18T02:06:59;16.60;99.90
8402;DHT22;4238;48.404;9.498;2022-08-18T02:09:27;16.60;99.90
8402;DHT22;4238;48.404;9.498;2022-08-18T02:11:54;16.60;99.90
8402;DHT22;4238;48.404;9.498;2022-08-18T02:14:23;16.60;99.90
8402;DHT22;4238;48.404;9.498;2022-08-18T02:16:50;16.60;99.90
8402;DHT22;4238;48.404;9.498;2022-08-18T02:19:17;16.70;99.90
8402;DHT22;4238;48.404;9.498;2022-08-18T02:21:44;16.80;99.90
8402;DHT22;4238;48.404;9.498;2022-08-18T02:24:11;16.80;99.90
8402;DHT22;4238;48.404;9.498;2022-08-18T02:26:38;16.70;99.90
8402;DHT22;4238;48.404;9.498;2022-08-18T02:29:05;16.70;99.90
8402;DHT22;4238;48.404;9.498;2022-08-18T02:31:33;16.70;99.90
8402;DHT22;4238;48.404;9.498;2022-08-18T02:34:00;16.70;99.90
8402;DHT22;4238;48.404;9.498;2022-08-18T02:36:27;16.80;99.90
8402;DHT22;4238;48.404;9.498;2022-08-18T02:38:54;16.80;99.90
8402;DHT22;4238;48.404;9.498;2022-08-18T02:41:21;16.90;99.90
8402;DHT22;4238;48.404;9.498;2022-08-18T02:43:50;16.80;99.90
8402;DHT22;4238;48.404;9.498;2022-08-18T02:46:17;16.90;99.90
8402;DHT22;4238;48.404;9.498;2022-08-18T02:48:45;17.00;99.90
8402;DHT22;4238;48.404;9.498;2022-08-18T02:51:15;17.00;99.90
8402;DHT22;4238;48.404;9.498;2022-08-18T02:53:44;17.10;99.90
8402;DHT22;4238;48.404;9.498;2022-08-18T02:56:13;17.20;99.90
8402;DHT22;4238;48.404;9.498;2022-08-18T02:58:51;17.10;99.90
8402;DHT22;4238;48.404;9.498;2022-08-18T03:01:19;17.20;99.90
8402;DHT22;4238;48.404;9.498;2022-08-18T03:03:48;17.20;99.90
8402;DHT22;4238;48.404;9.498;2022-08-18T03:06:15;17.10;99.90
8402;DHT22;4238;48.404;9.498;2022-08-18T03:08:42;17.10;99.90
8402;DHT22;4238;48.404;9.498;2022-08-18T03:11:13;17.10;99.90
8402;DHT22;4238;48.404;9.498;2022-08-18T03:13:40;17.10;99.90
8402;DHT22;4238;48.404;9.498;2022-08-18T03:16:07;17.10;99.90
8402;DHT22;4238;48.404;9.498;2022-08-18T03:18:34;17.20;99.90
8402;DHT22;4238;48.404;9.498;2022-08-18T03:21:06;17.20;99.90
8402;DHT22;4238;48.404;9.498;2022-08-18T03:23:35;17.30;99.90
8402;DHT22;4238;48.404;9.498;2022-08-18T03:26:05;17.30;99.90
8402;DHT22;4238;48.404;9.498;2022-08-18T03:28:32;17.20;99.90
8402;DHT22;4238;48.404;9.498;2022-08-18T03:30:59;17.10;99.90
8402;DHT22;4238;48.404;9.498;2022-08-18T03:33:26;17.00;99.90
8402;DHT22;4238;48.404;9.498;2022-08-18T03:35:53;17.10;99.90
8402;DHT22;4238;48.404;9.498;2022-08-18T03:38:21;17.10;99.90
8402;DHT22;4238;48.404;9.498;2022-08-18T03:40:50;16.90;99.90
8402;DHT22;4238;48.404;9.498;2022-08-18T03:43:17;17.00;99.90
8402;DHT22;4238;48.404;9.498;2022-08-18T03:45:44;17.10;99.90
8402;DHT22;4238;48.404;9.498;2022-08-18T03:48:11;17.00;99.90
8402;DHT22;4238;48.404;9.498;2022-08-18T03:50:38;17.00;99.90
8402;DHT22;4238;48.404;9.498;2022-08-18T03:53:05;17.00;99.90
8402;DHT22;4238;48.404;9.498;2022-08-18T03:55:34;17.00;99.90
8402;DHT22;4238;48.404;9.498;2022-08-18T03:58:01;17.00;99.90
8402;DHT22;4238;48.404;9.498;2022-08-18T04:00:29;17.10;99.90
8402;DHT22;4238;48.404;9.498;2022-08-18T04:02:57;17.10;99.90
8402;DHT22;4238;48.404;9.498;2022-08-18T04:05:25;17.00;99.90
8402;DHT22;4238;48.404;9.498;2022-08-18T04:07:53;17.00;99.90
8402;DHT22;4238;48.404;9.498;2022-08-18T04:10:21;17.00;99.90
8402;DHT22;4238;48.404;9.498;2022-08-18T04:12:49;17.00;99.90
8402;DHT22;4238;48.404;9.498;2022-08-18T04:15:17;17.00;99.90
8402;DHT22;4238;48.404;9.498;2022-08-18T04:17:44;16.90;99.90
8402;DHT22;4238;48.404;9.498;2022-08-18T04:20:12;16.90;99.90
8402;DHT22;4238;48.404;9.498;2022-08-18T04:22:39;16.90;99.90
8402;DHT22;4238;48.404;9.498;2022-08-18T04:25:07;16.80;99.90
8402;DHT22;4238;48.404;9.498;2022-08-18T04:27:35;16.80;99.90
8402;DHT22;4238;48.404;9.498;2022-08-18T04:30:09;16.80;99.90
8402;DHT22;4238;48.404;9.498;2022-08-18T04:32:37;16.80;99.90
8402;DHT22;4238;48.404;9.498;2022-08-18T04:35:05;16.80;99.90
8402;DHT22;4238;48.404;9.498;2022-08-18T04:37:32;16.80;99.90
8402;DHT22;4238;48.404;9.498;2022-08-18T04:39:59;16.70;99.90
8402;DHT22;4238;48.404;9.498;2022-08-18T04:42:26;16.70;99.90
8402;DHT22;4238;48.404;9.498;2022-08-18T04:44:53;16.80;99.90
8402;DHT22;4238;48.404;9.498;2022-08-18T04:47:22;16.80;99.90
8402;DHT22;4238;48.404;9.498;2022-08-18T04:49:50;16.90;99.90
8402;DHT22;4238;48.404;9.498;2022-08-18T04:52:17;17.00;99.90
8402;DHT22;4238;48.404;9.498;2022-08-18T04:55:03;17.10;99.90
8402;DHT22;4238;48.404;9.498;2022-08-18T04:57:30;17.10;99.90
8402;DHT22;4238;48.404;9.498;2022-08-18T04:59:58;17.00;99.90
8402;DHT22;4238;48.404;9.498;2022-08-18T05:02:26;17.00;99.90
8402;DHT22;4238;48.404;9.498;2022-08-18T05:04:53;17.10;99.90
8402;DHT22;4238;48.404;9.498;2022-08-18T05:07:20;17.10;99.90
8402;DHT22;4238;48.404;9.498;2022-08-18T05:09:48;17.00;99.90
8402;DHT22;4238;48.404;9.498;2022-08-18T05:12:16;16.90;99.90
8402;DHT22;4238;48.404;9.498;2022-08-18T05:14:44;16.90;99.90
8402;DHT22;4238;48.404;9.498;2022-08-18T05:17:11;16.90;99.90
8402;DHT22;4238;48.404;9.498;2022-08-18T05:19:40;16.80;99.90
8402;DHT22;4238;48.404;9.498;2022-08-18T05:22:08;16.90;99.90
8402;DHT22;4238;48.404;9.498;2022-08-18T05:24:36;17.00;99.90
8402;DHT22;4238;48.404;9.498;2022-08-18T05:27:05;17.10;99.90
8402;DHT22;4238;48.404;9.498;2022-08-18T05:29:32;17.20;99.90
8402;DHT22;4238;48.404;9.498;2022-08-18T05:32:02;17.20;99.90
8402;DHT22;4238;48.404;9.498;2022-08-18T05:34:31;17.20;99.90
8402;DHT22;4238;48.404;9.498;2022-08-18T05:37:07;17.30;99.90
8402;DHT22;4238;48.404;9.498;2022-08-18T05:39:42;17.40;99.90
8402;DHT22;4238;48.404;9.498;2022-08-18T05:42:14;17.50;99.90
8402;DHT22;4238;48.404;9.498;2022-08-18T05:44:45;17.60;99.90
8402;DHT22;4238;48.404;9.498;2022-08-18T05:47:20;17.60;99.90
8402;DHT22;4238;48.404;9.498;2022-08-18T05:49:49;17.60;99.90
8402;DHT22;4238;48.404;9.498;2022-08-18T05:52:21;17.60;99.90
8402;DHT22;4238;48.404;9.498;2022-08-18T05:54:50;17.50;99.90
8402;DHT22;4238;48.404;9.498;2022-08-18T05:57:40;17.40;99.90
8402;DHT22;4238;48.404;9.498;2022-08-18T06:00:09;17.50;99.90
8402;DHT22;4238;48.404;9.498;2022-08-18T06:02:41;17.70;99.90
8402;DHT22;4238;48.404;9.498;2022-08-18T06:05:13;17.90;99.90
8402;DHT22;4238;48.404;9.498;2022-08-18T06:07:45;18.10;99.90
8402;DHT22;4238;48.404;9.498;2022-08-18T06:10:15;18.50;99.90
8402;DHT22;4238;48.404;9.498;2022-08-18T06:12:45;18.70;99.90
8402;DHT22;4238;48.404;9.498;2022-08-18T06:15:16;18.70;99.90
8402;DHT22;4238;48.404;9.498;2022-08-18T06:18:19;19.00;99.90
8402;DHT22;4238;48.404;9.498;2022-08-18T06:21:08;19.00;99.90
8402;DHT22;4238;48.404;9.498;2022-08-18T06:23:50;19.10;99.90
8402;DHT22;4238;48.404;9.498;2022-08-18T06:26:20;18.90;99.90
8402;DHT22;4238;48.404;9.498;2022-08-18T06:28:57;18.80;99.90
8402;DHT22;4238;48.404;9.498;2022-08-18T06:31:34;18.80;99.90
8402;DHT22;4238;48.404;9.498;2022-08-18T06:34:13;18.70;99.90
8402;DHT22;4238;48.404;9.498;2022-08-18T06:36:49;18.70;99.90
8402;DHT22;4238;48.404;9.498;2022-08-18T06:39:25;18.70;99.90
8402;DHT22;4238;48.404;9.498;2022-08-18T06:41:53;18.50;99.90
8402;DHT22;4238;48.404;9.498;2022-08-18T06:44:33;18.40;99.90
8402;DHT22;4238;48.404;9.498;2022-08-18T06:47:06;18.30;99.90
8402;DHT22;4238;48.404;9.498;2022-08-18T06:49:43;18.30;99.90
8402;DHT22;4238;48.404;9.498;2022-08-18T06:52:26;18.40;99.90
8402;DHT22;4238;48.404;9.498;2022-08-18T06:54:57;18.40;99.90
8402;DHT22;4238;48.404;9.498;2022-08-18T06:57:29;18.40;99.90
8402;DHT22;4238;48.404;9.498;2022-08-18T07:00:00;18.50;99.90
8402;DHT22;4238;48.404;9.498;2022-08-18T07:02:41;18.70;99.90
8402;DHT22;4238;48.404;9.498;2022-08-18T07:05:17;18.80;99.90
8402;DHT22;4238;48.404;9.498;2022-08-18T07:07:44;18.70;99.90
8402;DHT22;4238;48.404;9.498;2022-08-18T07:13:16;18.90;99.90
8402;DHT22;4238;48.404;9.498;2022-08-18T07:15:44;18.90;99.90
8402;DHT22;4238;48.404;9.498;2022-08-18T07:18:13;19.10;99.90
8402;DHT22;4238;48.404;9.498;2022-08-18T07:20:44;19.10;99.90
8402;DHT22;4238;48.404;9.498;2022-08-18T07:23:26;19.00;99.90
8402;DHT22;4238;48.404;9.498;2022-08-18T07:26:05;19.00;99.90
8402;DHT22;4238;48.404;9.498;2022-08-18T07:28:36;19.00;99.90
8402;DHT22;4238;48.404;9.498;2022-08-18T07:31:19;19.00;99.90
8402;DHT22;4238;48.404;9.498;2022-08-18T07:33:53;18.90;99.90
8402;DHT22;4238;48.404;9.498;2022-08-18T07:36:24;18.90;99.90
8402;DHT22;4238;48.404;9.498;2022-08-18T07:38:57;18.90;99.90
8402;DHT22;4238;48.404;9.498;2022-08-18T07:41:29;18.90;99.90
8402;DHT22;4238;48.404;9.498;2022-08-18T07:44:05;18.90;99.90
8402;DHT22;4238;48.404;9.498;2022-08-18T07:46:46;18.90;99.90
8402;DHT22;4238;48.404;9.498;2022-08-18T07:49:18;18.90;99.90
8402;DHT22;4238;48.404;9.498;2022-08-18T07:51:48;18.90;99.90
8402;DHT22;4238;48.404;9.498;2022-08-18T07:54:26;18.80;99.90
8402;DHT22;4238;48.404;9.498;2022-08-18T07:57:04;18.80;99.90
8402;DHT22;4238;48.404;9.498;2022-08-18T07:59:41;18.90;99.90
8402;DHT22;4238;48.404;9.498;2022-08-18T08:02:29;18.90;99.90
8402;DHT22;4238;48.404;9.498;2022-08-18T08:05:08;18.90;99.90
8402;DHT22;4238;48.404;9.498;2022-08-18T08:07:55;18.90;99.90
8402;DHT22;4238;48.404;9.498;2022-08-18T08:10:33;18.90;99.90
8402;DHT22;4238;48.404;9.498;2022-08-18T08:13:11;18.90;99.90
8402;DHT22;4238;48.404;9.498;2022-08-18T08:15:48;19.30;99.90
8402;DHT22;4238;48.404;9.498;2022-08-18T08:18:20;19.80;99.90
8402;DHT22;4238;48.404;9.498;2022-08-18T08:20:53;20.20;99.90
8402;DHT22;4238;48.404;9.498;2022-08-18T08:23:25;20.00;99.90
8402;DHT22;4238;48.404;9.498;2022-08-18T08:26:01;19.70;99.90
8402;DHT22;4238;48.404;9.498;2022-08-18T08:28:40;20.00;99.90
8402;DHT22;4238;48.404;9.498;2022-08-18T08:31:14;19.80;99.90
8402;DHT22;4238;48.404;9.498;2022-08-18T08:33:49;19.60;99.90
8402;DHT22;4238;48.404;9.498;2022-08-18T08:36:20;19.40;99.90
8402;DHT22;4238;48.404;9.498;2022-08-18T08:38:54;19.40;99.90
8402;DHT22;4238;48.404;9.498;2022-08-18T08:41:31;19.70;99.90
8402;DHT22;4238;48.404;9.498;2022-08-18T08:44:05;19.70;99.90
8402;DHT22;4238;48.404;9.498;2022-08-18T08:46:41;19.70;99.90
8402;DHT22;4238;48.404;9.498;2022-08-18T08:49:20;19.50;99.90
8402;DHT22;4238;48.404;9.498;2022-08-18T08:51:50;19.60;99.90
8402;DHT22;4238;48.404;9.498;2022-08-18T08:54:23;19.60;99.90
8402;DHT22;4238;48.404;9.498;2022-08-18T08:56:54;19.60;99.90
8402;DHT22;4238;48.404;9.498;2022-08-18T08:59:23;19.70;99.90
8402;DHT22;4238;48.404;9.498;2022-08-18T09:05:02;20.20;85.00
8402;DHT22;4238;48.404;9.498;2022-08-18T09:07:48;20.60;90.50
8402;DHT22;4238;48.404;9.498;2022-08-18T09:16:18;21.40;16.90
8402;DHT22;4238;48.404;9.498;2022-08-18T09:19:00;21.40;5.40
8402;DHT22;4238;48.404;9.498;2022-08-18T09:21:38;21.40;14.90
8402;DHT22;4238;48.404;9.498;2022-08-18T09:24:22;21.50;26.80
8402;DHT22;4238;48.404;9.498;2022-08-18T09:26:52;21.40;12.10
8402;DHT22;4238;48.404;9.498;2022-08-18T09:29:25;21.20;1.00
8402;DHT22;4238;48.404;9.498;2022-08-18T09:32:32;21.20;3.70
8402;DHT22;4238;48.404;9.498;2022-08-18T09:35:13;21.40;15.90
8402;DHT22;4238;48.404;9.498;2022-08-18T09:37:49;21.60;29.60
8402;DHT22;4238;48.404;9.498;2022-08-18T09:40:46;21.90;3.60
8402;DHT22;4238;48.404;9.498;2022-08-18T09:43:39;21.60;1.00
8402;DHT22;4238;48.404;9.498;2022-08-18T09:46:49;21.60;3.90
8402;DHT22;4238;48.404;9.498;2022-08-18T09:49:42;21.60;10.00
8402;DHT22;4238;48.404;9.498;2022-08-18T09:55:55;21.70;1.00
8402;DHT22;4238;48.404;9.498;2022-08-18T09:58:53;21.60;1.00
8402;DHT22;4238;48.404;9.498;2022-08-18T10:01:31;21.60;1.00
8402;DHT22;4238;48.404;9.498;2022-08-18T10:04:30;21.70;1.00
8402;DHT22;4238;48.404;9.498;2022-08-18T10:07:20;21.80;1.00
8402;DHT22;4238;48.404;9.498;2022-08-18T10:10:05;21.80;1.00
8402;DHT22;4238;48.404;9.498;2022-08-18T10:12:47;21.90;1.00
8402;DHT22;4238;48.404;9.498;2022-08-18T10:15:25;21.90;1.00
8402;DHT22;4238;48.404;9.498;2022-08-18T10:20:58;21.90;1.00
8402;DHT22;4238;48.404;9.498;2022-08-18T10:23:49;22.00;1.00
8402;DHT22;4238;48.404;9.498;2022-08-18T10:29:52;22.60;1.00
8402;DHT22;4238;48.404;9.498;2022-08-18T10:32:44;22.90;1.00
8402;DHT22;4238;48.404;9.498;2022-08-18T10:38:41;23.00;1.00
8402;DHT22;4238;48.404;9.498;2022-08-18T10:41:17;23.00;99.90
8402;DHT22;4238;48.404;9.498;2022-08-18T10:43:47;22.70;99.90
8402;DHT22;4238;48.404;9.498;2022-08-18T10:46:20;22.70;1.00
8402;DHT22;4238;48.404;9.498;2022-08-18T10:49:04;22.50;1.00
8402;DHT22;4238;48.404;9.498;2022-08-18T10:58:01;23.20;1.00
8402;DHT22;4238;48.404;9.498;2022-08-18T11:00:49;23.40;1.00
8402;DHT22;4238;48.404;9.498;2022-08-18T11:03:29;23.90;1.00
8402;DHT22;4238;48.404;9.498;2022-08-18T11:06:04;24.10;1.00
8402;DHT22;4238;48.404;9.498;2022-08-18T11:08:36;23.90;99.90
8402;DHT22;4238;48.404;9.498;2022-08-18T11:11:06;24.00;1.00
8402;DHT22;4238;48.404;9.498;2022-08-18T11:13:42;24.00;99.90
8402;DHT22;4238;48.404;9.498;2022-08-18T11:16:24;23.80;99.90
8402;DHT22;4238;48.404;9.498;2022-08-18T11:19:05;23.90;42.70
8402;DHT22;4238;48.404;9.498;2022-08-18T11:21:37;23.70;99.90
8402;DHT22;4238;48.404;9.498;2022-08-18T11:24:06;23.70;99.90
8402;DHT22;4238;48.404;9.498;2022-08-18T11:26:37;23.60;1.00
8402;DHT22;4238;48.404;9.498;2022-08-18T11:29:24;23.40;1.00
8402;DHT22;4238;48.404;9.498;2022-08-18T11:31:58;23.30;99.90
8402;DHT22;4238;48.404;9.498;2022-08-18T11:34:31;23.30;1.00
8402;DHT22;4238;48.404;9.498;2022-08-18T11:37:03;23.20;1.00
8402;DHT22;4238;48.404;9.498;2022-08-18T11:39:30;23.40;99.90
8402;DHT22;4238;48.404;9.498;2022-08-18T11:41:58;23.40;43.20
8402;DHT22;4238;48.404;9.498;2022-08-18T11:44:29;23.20;1.00
8402;DHT22;4238;48.404;9.498;2022-08-18T11:47:11;23.10;99.90
8402;DHT22;4238;48.404;9.498;2022-08-18T11:49:53;22.90;1.00
8402;DHT22;4238;48.404;9.498;2022-08-18T11:52:24;22.70;99.90
8402;DHT22;4238;48.404;9.498;2022-08-18T11:54:58;22.80;1.00
8402;DHT22;4238;48.404;9.498;2022-08-18T11:57:47;22.70;99.90
8402;DHT22;4238;48.404;9.498;2022-08-18T12:00:53;22.70;90.00
8402;DHT22;4238;48.404;9.498;2022-08-18T12:03:27;22.60;99.90
8402;DHT22;4238;48.404;9.498;2022-08-18T12:05:58;22.70;1.00
8402;DHT22;4238;48.404;9.498;2022-08-18T12:08:32;22.80;1.00
8402;DHT22;4238;48.404;9.498;2022-08-18T12:11:04;22.90;99.90
8402;DHT22;4238;48.404;9.498;2022-08-18T12:13:32;22.90;1.00
8402;DHT22;4238;48.404;9.498;2022-08-18T12:16:13;22.80;1.00
8402;DHT22;4238;48.404;9.498;2022-08-18T12:18:40;23.00;1.00
8402;DHT22;4238;48.404;9.498;2022-08-18T12:21:09;23.00;1.00
8402;DHT22;4238;48.404;9.498;2022-08-18T12:23:39;23.10;99.90
8402;DHT22;4238;48.404;9.498;2022-08-18T12:26:08;23.00;99.90
8402;DHT22;4238;48.404;9.498;2022-08-18T12:28:35;23.10;99.90
8402;DHT22;4238;48.404;9.498;2022-08-18T12:31:04;23.20;99.90
8402;DHT22;4238;48.404;9.498;2022-08-18T12:33:32;23.10;99.90
8402;DHT22;4238;48.404;9.498;2022-08-18T12:35:59;23.20;6.10
8402;DHT22;4238;48.404;9.498;2022-08-18T12:38:27;23.30;97.20
8402;DHT22;4238;48.404;9.498;2022-08-18T12:40:54;23.60;99.90
8402;DHT22;4238;48.404;9.498;2022-08-18T12:43:21;24.00;99.90
8402;DHT22;4238;48.404;9.498;2022-08-18T12:45:48;24.20;99.90
8402;DHT22;4238;48.404;9.498;2022-08-18T12:48:15;24.00;99.90
8402;DHT22;4238;48.404;9.498;2022-08-18T12:50:43;23.70;1.00
8402;DHT22;4238;48.404;9.498;2022-08-18T12:53:10;23.40;27.50
8402;DHT22;4238;48.404;9.498;2022-08-18T12:55:41;22.80;1.00
8402;DHT22;4238;48.404;9.498;2022-08-18T12:58:08;22.80;99.90
8402;DHT22;4238;48.404;9.498;2022-08-18T13:00:36;22.70;1.00
8402;DHT22;4238;48.404;9.498;2022-08-18T13:03:05;22.70;1.00
8402;DHT22;4238;48.404;9.498;2022-08-18T13:05:33;22.80;1.00
8402;DHT22;4238;48.404;9.498;2022-08-18T13:08:02;22.70;1.00
8402;DHT22;4238;48.404;9.498;2022-08-18T13:10:30;22.70;1.00
8402;DHT22;4238;48.404;9.498;2022-08-18T13:12:58;22.50;99.90
8402;DHT22;4238;48.404;9.498;2022-08-18T13:15:26;22.50;99.90
8402;DHT22;4238;48.404;9.498;2022-08-18T13:17:53;22.30;1.00
8402;DHT22;4238;48.404;9.498;2022-08-18T13:20:20;22.10;1.00
8402;DHT22;4238;48.404;9.498;2022-08-18T13:22:47;22.10;1.00
8402;DHT22;4238;48.404;9.498;2022-08-18T13:25:15;22.20;1.00
8402;DHT22;4238;48.404;9.498;2022-08-18T13:27:43;22.40;1.00
8402;DHT22;4238;48.404;9.498;2022-08-18T13:30:15;22.50;1.00
8402;DHT22;4238;48.404;9.498;2022-08-18T13:32:42;22.50;1.00
8402;DHT22;4238;48.404;9.498;2022-08-18T13:35:10;22.50;1.00
8402;DHT22;4238;48.404;9.498;2022-08-18T13:37:37;22.70;1.00
8402;DHT22;4238;48.404;9.498;2022-08-18T13:40:05;22.70;1.00
8402;DHT22;4238;48.404;9.498;2022-08-18T13:42:41;22.70;1.00
8402;DHT22;4238;48.404;9.498;2022-08-18T13:45:15;22.60;1.00
8402;DHT22;4238;48.404;9.498;2022-08-18T13:47:43;22.60;1.00
8402;DHT22;4238;48.404;9.498;2022-08-18T13:50:10;22.70;99.90
8402;DHT22;4238;48.404;9.498;2022-08-18T13:52:38;22.90;99.90
8402;DHT22;4238;48.404;9.498;2022-08-18T13:55:08;22.90;99.90
8402;DHT22;4238;48.404;9.498;2022-08-18T13:57:36;23.00;1.00
8402;DHT22;4238;48.404;9.498;2022-08-18T14:00:06;23.30;99.90
8402;DHT22;4238;48.404;9.498;2022-08-18T14:02:37;23.50;99.90
8402;DHT22;4238;48.404;9.498;2022-08-18T14:05:05;23.60;99.90
8402;DHT22;4238;48.404;9.498;2022-08-18T14:07:33;23.50;56.80
8402;DHT22;4238;48.404;9.498;2022-08-18T14:10:01;23.40;99.90
8402;DHT22;4238;48.404;9.498;2022-08-18T14:12:28;23.40;99.90
8402;DHT22;4238;48.404;9.498;2022-08-18T14:14:54;23.40;74.40
8402;DHT22;4238;48.404;9.498;2022-08-18T14:17:22;23.40;1.30
8402;DHT22;4238;48.404;9.498;2022-08-18T14:19:51;23.40;99.90
8402;DHT22;4238;48.404;9.498;2022-08-18T14:22:36;23.60;99.90
8402;DHT22;4238;48.404;9.498;2022-08-18T14:25:21;23.60;99.90
8402;DHT22;4238;48.404;9.498;2022-08-18T14:28:05;23.70;99.90
8402;DHT22;4238;48.404;9.498;2022-08-18T14:30:34;23.70;1.00
8402;DHT22;4238;48.404;9.498;2022-08-18T14:33:04;23.80;1.00
8402;DHT22;4238;48.404;9.498;2022-08-18T14:35:32;23.70;1.00
8402;DHT22;4238;48.404;9.498;2022-08-18T14:37:59;23.60;1.00
8402;DHT22;4238;48.404;9.498;2022-08-18T14:40:26;23.60;41.00
8402;DHT22;4238;48.404;9.498;2022-08-18T14:42:53;23.40;1.00
8402;DHT22;4238;48.404;9.498;2022-08-18T14:45:21;23.50;1.00
8402;DHT22;4238;48.404;9.498;2022-08-18T14:47:48;23.50;1.00
8402;DHT22;4238;48.404;9.498;2022-08-18T14:50:19;23.50;99.90
8402;DHT22;4238;48.404;9.498;2022-08-18T14:52:48;23.70;1.00
8402;DHT22;4238;48.404;9.498;2022-08-18T14:55:16;23.60;99.90
8402;DHT22;4238;48.404;9.498;2022-08-18T14:57:43;23.40;1.00
8402;DHT22;4238;48.404;9.498;2022-08-18T15:00:13;23.40;1.00
8402;DHT22;4238;48.404;9.498;2022-08-18T15:02:42;23.30;1.00
8402;DHT22;4238;48.404;9.498;2022-08-18T15:05:10;23.20;99.90
8402;DHT22;4238;48.404;9.498;2022-08-18T15:07:38;23.10;54.70
8402;DHT22;4238;48.404;9.498;2022-08-18T15:10:09;23.00;93.30
8402;DHT22;4238;48.404;9.498;2022-08-18T15:12:36;22.70;99.90
8402;DHT22;4238;48.404;9.498;2022-08-18T15:15:05;22.60;1.00
8402;DHT22;4238;48.404;9.498;2022-08-18T15:17:33;22.70;1.00
8402;DHT22;4238;48.404;9.498;2022-08-18T15:20:03;22.70;1.00
8402;DHT22;4238;48.404;9.498;2022-08-18T15:22:31;22.70;1.00
8402;DHT22;4238;48.404;9.498;2022-08-18T15:25:16;22.50;1.00
8402;DHT22;4238;48.404;9.498;2022-08-18T15:28:00;22.40;1.00
8402;DHT22;4238;48.404;9.498;2022-08-18T15:30:27;22.40;1.00
8402;DHT22;4238;48.404;9.498;2022-08-18T15:32:54;22.40;1.00
8402;DHT22;4238;48.404;9.498;2022-08-18T15:35:24;22.40;1.00
8402;DHT22;4238;48.404;9.498;2022-08-18T15:37:53;22.30;1.00
8402;DHT22;4238;48.404;9.498;2022-08-18T15:40:23;22.20;1.00
8402;DHT22;4238;48.404;9.498;2022-08-18T15:42:53;22.20;1.00
8402;DHT22;4238;48.404;9.498;2022-08-18T15:45:25;22.10;1.00
8402;DHT22;4238;48.404;9.498;2022-08-18T15:47:53;22.10;1.00
8402;DHT22;4238;48.404;9.498;2022-08-18T15:50:21;22.10;1.00
8402;DHT22;4238;48.404;9.498;2022-08-18T15:52:50;22.10;1.00
8402;DHT22;4238;48.404;9.498;2022-08-18T15:55:18;22.20;1.00
8402;DHT22;4238;48.404;9.498;2022-08-18T15:57:47;22.00;1.00
8402;DHT22;4238;48.404;9.498;2022-08-18T16:00:16;22.00;1.00
8402;DHT22;4238;48.404;9.498;2022-08-18T16:02:48;21.90;1.00
8402;DHT22;4238;48.404;9.498;2022-08-18T16:05:17;21.90;1.00
8402;DHT22;4238;48.404;9.498;2022-08-18T16:07:46;21.90;1.00
8402;DHT22;4238;48.404;9.498;2022-08-18T16:10:14;21.90;1.00
8402;DHT22;4238;48.404;9.498;2022-08-18T16:12:42;21.80;1.00
8402;DHT22;4238;48.404;9.498;2022-08-18T16:15:11;21.80;1.00
8402;DHT22;4238;48.404;9.498;2022-08-18T16:17:38;21.90;1.00
8402;DHT22;4238;48.404;9.498;2022-08-18T16:20:05;21.80;1.00
8402;DHT22;4238;48.404;9.498;2022-08-18T16:22:33;21.90;1.00
8402;DHT22;4238;48.404;9.498;2022-08-18T16:25:02;22.00;1.00
8402;DHT22;4238;48.404;9.498;2022-08-18T16:27:29;22.00;1.00
8402;DHT22;4238;48.404;9.498;2022-08-18T16:29:58;22.00;1.00
8402;DHT22;4238;48.404;9.498;2022-08-18T16:32:27;22.10;1.00
8402;DHT22;4238;48.404;9.498;2022-08-18T16:34:54;22.10;1.00
8402;DHT22;4238;48.404;9.498;2022-08-18T16:37:21;22.10;1.00
8402;DHT22;4238;48.404;9.498;2022-08-18T16:39:48;22.10;1.00
8402;DHT22;4238;48.404;9.498;2022-08-18T16:42:15;22.10;1.00
8402;DHT22;4238;48.404;9.498;2022-08-18T16:44:42;22.10;1.00
8402;DHT22;4238;48.404;9.498;2022-08-18T16:47:10;22.10;1.00
8402;DHT22;4238;48.404;9.498;2022-08-18T16:49:39;22.00;1.00
8402;DHT22;4238;48.404;9.498;2022-08-18T16:52:06;21.90;1.00
8402;DHT22;4238;48.404;9.498;2022-08-18T16:54:33;21.90;1.00
8402;DHT22;4238;48.404;9.498;2022-08-18T16:57:00;21.90;1.00
8402;DHT22;4238;48.404;9.498;2022-08-18T16:59:26;21.80;1.00
8402;DHT22;4238;48.404;9.498;2022-08-18T17:02:11;21.80;1.00
8402;DHT22;4238;48.404;9.498;2022-08-18T17:04:56;21.80;1.00
8402;DHT22;4238;48.404;9.498;2022-08-18T17:07:27;21.70;1.00
8402;DHT22;4238;48.404;9.498;2022-08-18T17:09:55;21.70;1.00